sensor_id;sensor_type;location;lat;lon;timestamp;P1;durP1;ratioP1;P2;durP2;ratioP2
2486;SDS011;1254;49.144;8.212;2023-03-14T00:01:08;2.45;;;1.30;;
2486;SDS011;1254;49.144;8.212;2023-03-14T00:03:36;0.80;;;0.80;;
2486;SDS011;1254;49.144;8.212;2023-03-14T00:06:07;0.90;;;0.90;;
2486;SDS011;1254;49.144;8.212;2023-03-14T00:08:35;2.10;;;1.05;;
2486;SDS011;1254;49.144;8.212;2023-03-14T00:11:05;2.65;;;1.10;;
2486;SDS011;1254;49.144;8.212;2023-03-14T00:13:33;1.98;;;0.80;;
2486;SDS011;1254;49.144;8.212;2023-03-14T00:16:02;1.88;;;1.10;;
2486;SDS011;1254;49.144;8.212;2023-03-14T00:18:31;0.90;;;0.90;;
2486;SDS011;1254;49.144;8.212;2023-03-14T00:21:01;4.43;;;0.90;;
2486;SDS011;1254;49.144;8.212;2023-03-14T00:23:32;0.90;;;0.90;;
2486;SDS011;1254;49.144;8.212;2023-03-14T00:26:01;1.30;;;1.15;;
2486;SDS011;1254;49.144;8.212;2023-03-14T00:28:30;7.55;;;1.20;;
2486;SDS011;1254;49.144;8.212;2023-03-14T00:30:58;0.90;;;0.90;;
2486;SDS011;1254;49.144;8.212;2023-03-14T00:33:27;4.10;;;0.90;;
2486;SDS011;1254;49.144;8.212;2023-03-14T00:35:56;1.70;;;1.20;;
2486;SDS011;1254;49.144;8.212;2023-03-14T00:38:26;0.90;;;0.90;;
2486;SDS011;1254;49.144;8.212;2023-03-14T00:40:56;1.17;;;1.00;;
2486;SDS011;1254;49.144;8.212;2023-03-14T00:43:26;1.10;;;1.00;;
2486;SDS011;1254;49.144;8.212;2023-03-14T00:45:54;1.38;;;1.00;;
2486;SDS011;1254;49.144;8.212;2023-03-14T00:48:26;1.30;;;0.82;;
2486;SDS011;1254;49.144;8.212;2023-03-14T00:50:55;1.33;;;1.20;;
2486;SDS011;1254;49.144;8.212;2023-03-14T00:53:23;0.90;;;0.90;;
2486;SDS011;1254;49.144;8.212;2023-03-14T00:56:01;2.28;;;2.08;;
2486;SDS011;1254;49.144;8.212;2023-03-14T00:58:30;1.02;;;1.02;;
2486;SDS011;1254;49.144;8.212;2023-03-14T01:00:58;1.38;;;1.10;;
2486;SDS011;1254;49.144;8.212;2023-03-14T01:03:27;1.20;;;1.10;;
2486;SDS011;1254;49.144;8.212;2023-03-14T01:06:02;1.33;;;1.20;;
2486;SDS011;1254;49.144;8.212;2023-03-14T01:08:35;4.30;;;1.30;;
2486;SDS011;1254;49.144;8.212;2023-03-14T01:11:06;1.27;;;1.10;;
2486;SDS011;1254;49.144;8.212;2023-03-14T01:13:36;3.25;;;1.30;;
2486;SDS011;1254;49.144;8.212;2023-03-14T01:16:05;1.63;;;1.23;;
2486;SDS011;1254;49.144;8.212;2023-03-14T01:18:36;1.40;;;0.95;;
2486;SDS011;1254;49.144;8.212;2023-03-14T01:21:09;1.58;;;1.48;;
2486;SDS011;1254;49.144;8.212;2023-03-14T01:23:38;1.35;;;1.10;;
2486;SDS011;1254;49.144;8.212;2023-03-14T01:26:09;6.95;;;1.20;;
2486;SDS011;1254;49.144;8.212;2023-03-14T01:28:38;4.75;;;1.60;;
2486;SDS011;1254;49.144;8.212;2023-03-14T01:31:06;4.20;;;1.42;;
2486;SDS011;1254;49.144;8.212;2023-03-14T01:33:34;1.00;;;1.00;;
2486;SDS011;1254;49.144;8.212;2023-03-14T01:36:03;1.35;;;1.27;;
2486;SDS011;1254;49.144;8.212;2023-03-14T01:38:32;2.78;;;1.40;;
2486;SDS011;1254;49.144;8.212;2023-03-14T01:41:01;2.20;;;1.30;;
2486;SDS011;1254;49.144;8.212;2023-03-14T01:43:31;2.97;;;1.75;;
2486;SDS011;1254;49.144;8.212;2023-03-14T01:46:12;3.30;;;1.50;;
2486;SDS011;1254;49.144;8.212;2023-03-14T01:48:45;2.80;;;1.17;;
2486;SDS011;1254;49.144;8.212;2023-03-14T01:51:16;1.70;;;1.30;;
2486;SDS011;1254;49.144;8.212;2023-03-14T01:53:45;4.50;;;1.55;;
2486;SDS011;1254;49.144;8.212;2023-03-14T01:56:14;2.10;;;1.55;;
2486;SDS011;1254;49.144;8.212;2023-03-14T01:58:46;1.70;;;1.30;;
2486;SDS011;1254;49.144;8.212;2023-03-14T02:01:15;1.65;;;1.10;;
2486;SDS011;1254;49.144;8.212;2023-03-14T02:03:45;2.80;;;1.30;;
2486;SDS011;1254;49.144;8.212;2023-03-14T02:06:15;1.63;;;1.20;;
2486;SDS011;1254;49.144;8.212;2023-03-14T02:08:47;2.08;;;1.20;;
2486;SDS011;1254;49.144;8.212;2023-03-14T02:11:19;1.95;;;1.05;;
2486;SDS011;1254;49.144;8.212;2023-03-14T02:14:03;1.63;;;1.45;;
2486;SDS011;1254;49.144;8.212;2023-03-14T02:16:50;2.28;;;1.45;;
2486;SDS011;1254;49.144;8.212;2023-03-14T02:19:45;3.13;;;1.45;;
2486;SDS011;1254;49.144;8.212;2023-03-14T02:22:31;1.45;;;1.15;;
2486;SDS011;1254;49.144;8.212;2023-03-14T02:25:06;4.95;;;1.70;;
2486;SDS011;1254;49.144;8.212;2023-03-14T02:27:38;3.33;;;1.60;;
2486;SDS011;1254;49.144;8.212;2023-03-14T02:30:08;1.42;;;1.33;;
2486;SDS011;1254;49.144;8.212;2023-03-14T02:32:40;1.80;;;1.20;;
2486;SDS011;1254;49.144;8.212;2023-03-14T02:35:10;4.50;;;1.55;;
2486;SDS011;1254;49.144;8.212;2023-03-14T02:37:41;3.38;;;1.30;;
2486;SDS011;1254;49.144;8.212;2023-03-14T02:40:11;1.20;;;1.10;;
2486;SDS011;1254;49.144;8.212;2023-03-14T02:42:42;2.30;;;1.50;;
2486;SDS011;1254;49.144;8.212;2023-03-14T02:45:33;2.65;;;1.40;;
2486;SDS011;1254;49.144;8.212;2023-03-14T02:48:03;1.65;;;1.50;;
2486;SDS011;1254;49.144;8.212;2023-03-14T02:50:36;3.78;;;1.20;;
2486;SDS011;1254;49.144;8.212;2023-03-14T02:53:05;1.80;;;1.40;;
2486;SDS011;1254;49.144;8.212;2023-03-14T02:55:34;5.88;;;1.45;;
2486;SDS011;1254;49.144;8.212;2023-03-14T02:58:10;1.88;;;1.00;;
2486;SDS011;1254;49.144;8.212;2023-03-14T03:00:39;1.35;;;1.20;;
2486;SDS011;1254;49.144;8.212;2023-03-14T03:03:09;1.50;;;1.38;;
2486;SDS011;1254;49.144;8.212;2023-03-14T03:05:37;3.17;;;1.38;;
2486;SDS011;1254;49.144;8.212;2023-03-14T03:08:06;1.40;;;1.30;;
2486;SDS011;1254;49.144;8.212;2023-03-14T03:10:35;1.40;;;1.30;;
2486;SDS011;1254;49.144;8.212;2023-03-14T03:13:03;1.60;;;1.33;;
2486;SDS011;1254;49.144;8.212;2023-03-14T03:15:33;1.40;;;1.30;;
2486;SDS011;1254;49.144;8.212;2023-03-14T03:18:02;4.07;;;1.15;;
2486;SDS011;1254;49.144;8.212;2023-03-14T03:20:30;2.60;;;1.30;;
2486;SDS011;1254;49.144;8.212;2023-03-14T03:22:59;1.77;;;1.10;;
2486;SDS011;1254;49.144;8.212;2023-03-14T03:25:28;1.55;;;1.20;;
2486;SDS011;1254;49.144;8.212;2023-03-14T03:27:56;2.03;;;1.90;;
2486;SDS011;1254;49.144;8.212;2023-03-14T03:30:25;3.05;;;1.50;;
2486;SDS011;1254;49.144;8.212;2023-03-14T03:32:55;6.00;;;5.18;;
2486;SDS011;1254;49.144;8.212;2023-03-14T03:35:23;3.92;;;3.45;;
2486;SDS011;1254;49.144;8.212;2023-03-14T03:37:54;2.80;;;2.25;;
2486;SDS011;1254;49.144;8.212;2023-03-14T03:40:25;1.33;;;1.23;;
2486;SDS011;1254;49.144;8.212;2023-03-14T03:42:57;6.53;;;2.15;;
2486;SDS011;1254;49.144;8.212;2023-03-14T03:45:25;2.75;;;1.40;;
2486;SDS011;1254;49.144;8.212;2023-03-14T03:47:57;2.67;;;1.30;;
2486;SDS011;1254;49.144;8.212;2023-03-14T03:50:25;2.55;;;1.30;;
2486;SDS011;1254;49.144;8.212;2023-03-14T03:52:53;6.95;;;1.27;;
2486;SDS011;1254;49.144;8.212;2023-03-14T03:55:22;1.48;;;1.38;;
2486;SDS011;1254;49.144;8.212;2023-03-14T03:57:52;2.20;;;1.25;;
2486;SDS011;1254;49.144;8.212;2023-03-14T04:00:20;2.20;;;1.58;;
2486;SDS011;1254;49.144;8.212;2023-03-14T04:02:48;1.95;;;1.10;;
2486;SDS011;1254;49.144;8.212;2023-03-14T04:05:20;3.65;;;1.00;;
2486;SDS011;1254;49.144;8.212;2023-03-14T04:07:54;1.10;;;1.00;;
2486;SDS011;1254;49.144;8.212;2023-03-14T04:10:26;3.58;;;0.90;;
2486;SDS011;1254;49.144;8.212;2023-03-14T04:13:04;3.08;;;1.45;;
2486;SDS011;1254;49.144;8.212;2023-03-14T04:15:34;3.17;;;1.40;;
2486;SDS011;1254;49.144;8.212;2023-03-14T04:18:08;3.17;;;1.20;;
2486;SDS011;1254;49.144;8.212;2023-03-14T04:20:38;1.52;;;1.40;;
2486;SDS011;1254;49.144;8.212;2023-03-14T04:23:06;4.22;;;1.33;;
2486;SDS011;1254;49.144;8.212;2023-03-14T04:25:36;5.75;;;1.13;;
2486;SDS011;1254;49.144;8.212;2023-03-14T04:28:05;1.27;;;1.10;;
2486;SDS011;1254;49.144;8.212;2023-03-14T04:30:33;2.40;;;0.95;;
2486;SDS011;1254;49.144;8.212;2023-03-14T04:33:08;2.83;;;1.17;;
2486;SDS011;1254;49.144;8.212;2023-03-14T04:35:45;2.47;;;1.25;;
2486;SDS011;1254;49.144;8.212;2023-03-14T04:38:16;4.60;;;0.85;;
2486;SDS011;1254;49.144;8.212;2023-03-14T04:40:46;3.55;;;1.52;;
2486;SDS011;1254;49.144;8.212;2023-03-14T04:43:16;1.40;;;1.10;;
2486;SDS011;1254;49.144;8.212;2023-03-14T04:45:54;2.78;;;1.45;;
2486;SDS011;1254;49.144;8.212;2023-03-14T04:48:23;3.70;;;1.45;;
2486;SDS011;1254;49.144;8.212;2023-03-14T04:50:53;4.25;;;1.13;;
2486;SDS011;1254;49.144;8.212;2023-03-14T04:53:22;2.00;;;1.35;;
2486;SDS011;1254;49.144;8.212;2023-03-14T04:55:54;2.30;;;1.00;;
2486;SDS011;1254;49.144;8.212;2023-03-14T04:58:24;1.90;;;1.38;;
2486;SDS011;1254;49.144;8.212;2023-03-14T05:00:55;6.18;;;1.17;;
2486;SDS011;1254;49.144;8.212;2023-03-14T05:03:55;2.83;;;0.95;;
2486;SDS011;1254;49.144;8.212;2023-03-14T05:06:44;1.65;;;1.10;;
2486;SDS011;1254;49.144;8.212;2023-03-14T05:09:25;5.53;;;1.60;;
2486;SDS011;1254;49.144;8.212;2023-03-14T05:12:23;3.17;;;1.63;;
2486;SDS011;1254;49.144;8.212;2023-03-14T05:15:06;2.08;;;0.80;;
2486;SDS011;1254;49.144;8.212;2023-03-14T05:17:53;2.55;;;0.80;;
2486;SDS011;1254;49.144;8.212;2023-03-14T05:20:32;3.08;;;1.08;;
2486;SDS011;1254;49.144;8.212;2023-03-14T05:23:23;1.70;;;0.80;;
2486;SDS011;1254;49.144;8.212;2023-03-14T05:26:10;1.90;;;1.20;;
2486;SDS011;1254;49.144;8.212;2023-03-14T05:28:46;2.72;;;1.02;;
2486;SDS011;1254;49.144;8.212;2023-03-14T05:31:33;1.20;;;1.02;;
2486;SDS011;1254;49.144;8.212;2023-03-14T05:34:26;2.38;;;1.40;;
2486;SDS011;1254;49.144;8.212;2023-03-14T05:37:06;2.65;;;1.05;;
2486;SDS011;1254;49.144;8.212;2023-03-14T05:39:55;5.63;;;1.30;;
2486;SDS011;1254;49.144;8.212;2023-03-14T05:42:39;1.67;;;1.10;;
2486;SDS011;1254;49.144;8.212;2023-03-14T05:45:08;8.00;;;1.33;;
2486;SDS011;1254;49.144;8.212;2023-03-14T05:48:00;4.80;;;1.63;;
2486;SDS011;1254;49.144;8.212;2023-03-14T05:50:39;2.90;;;1.02;;
2486;SDS011;1254;49.144;8.212;2023-03-14T05:53:26;4.63;;;1.48;;
2486;SDS011;1254;49.144;8.212;2023-03-14T05:56:27;3.92;;;1.00;;
2486;SDS011;1254;49.144;8.212;2023-03-14T05:59:04;3.75;;;1.20;;
2486;SDS011;1254;49.144;8.212;2023-03-14T06:01:54;2.03;;;1.15;;
2486;SDS011;1254;49.144;8.212;2023-03-14T06:04:26;1.85;;;0.90;;
2486;SDS011;1254;49.144;8.212;2023-03-14T06:06:58;2.75;;;1.10;;
2486;SDS011;1254;49.144;8.212;2023-03-14T06:09:30;2.90;;;1.17;;
2486;SDS011;1254;49.144;8.212;2023-03-14T06:12:03;2.55;;;1.27;;
2486;SDS011;1254;49.144;8.212;2023-03-14T06:14:37;2.05;;;1.15;;
2486;SDS011;1254;49.144;8.212;2023-03-14T06:17:07;3.67;;;1.20;;
2486;SDS011;1254;49.144;8.212;2023-03-14T06:19:43;5.32;;;1.00;;
2486;SDS011;1254;49.144;8.212;2023-03-14T06:22:13;1.67;;;0.95;;
2486;SDS011;1254;49.144;8.212;2023-03-14T06:24:42;5.68;;;1.85;;
2486;SDS011;1254;49.144;8.212;2023-03-14T06:27:12;1.45;;;0.90;;
2486;SDS011;1254;49.144;8.212;2023-03-14T06:29:41;3.58;;;0.98;;
2486;SDS011;1254;49.144;8.212;2023-03-14T06:32:09;2.95;;;1.33;;
2486;SDS011;1254;49.144;8.212;2023-03-14T06:34:40;3.03;;;0.93;;
2486;SDS011;1254;49.144;8.212;2023-03-14T06:37:11;2.42;;;0.95;;
2486;SDS011;1254;49.144;8.212;2023-03-14T06:39:41;1.65;;;0.90;;
2486;SDS011;1254;49.144;8.212;2023-03-14T06:42:23;4.35;;;1.10;;
2486;SDS011;1254;49.144;8.212;2023-03-14T06:44:54;4.60;;;1.35;;
2486;SDS011;1254;49.144;8.212;2023-03-14T06:47:23;1.52;;;0.80;;
2486;SDS011;1254;49.144;8.212;2023-03-14T06:49:54;4.22;;;1.23;;
2486;SDS011;1254;49.144;8.212;2023-03-14T06:52:26;0.80;;;0.70;;
2486;SDS011;1254;49.144;8.212;2023-03-14T06:54:57;2.05;;;0.95;;
2486;SDS011;1254;49.144;8.212;2023-03-14T06:57:36;1.27;;;0.93;;
2486;SDS011;1254;49.144;8.212;2023-03-14T07:00:13;4.40;;;1.17;;
2486;SDS011;1254;49.144;8.212;2023-03-14T07:02:47;0.90;;;0.90;;
2486;SDS011;1254;49.144;8.212;2023-03-14T07:05:27;2.80;;;0.93;;
2486;SDS011;1254;49.144;8.212;2023-03-14T07:08:17;3.85;;;1.10;;
2486;SDS011;1254;49.144;8.212;2023-03-14T07:10:47;1.20;;;0.90;;
2486;SDS011;1254;49.144;8.212;2023-03-14T07:13:20;2.67;;;1.20;;
2486;SDS011;1254;49.144;8.212;2023-03-14T07:15:54;2.17;;;0.88;;
2486;SDS011;1254;49.144;8.212;2023-03-14T07:18:23;2.10;;;1.35;;
2486;SDS011;1254;49.144;8.212;2023-03-14T07:20:52;2.63;;;1.27;;
2486;SDS011;1254;49.144;8.212;2023-03-14T07:23:20;1.00;;;0.95;;
2486;SDS011;1254;49.144;8.212;2023-03-14T07:25:53;3.45;;;1.08;;
2486;SDS011;1254;49.144;8.212;2023-03-14T07:28:26;3.05;;;1.00;;
2486;SDS011;1254;49.144;8.212;2023-03-14T07:31:00;2.38;;;0.90;;
2486;SDS011;1254;49.144;8.212;2023-03-14T07:33:33;3.53;;;1.15;;
2486;SDS011;1254;49.144;8.212;2023-03-14T07:36:02;4.75;;;0.90;;
2486;SDS011;1254;49.144;8.212;2023-03-14T07:38:31;2.55;;;0.90;;
2486;SDS011;1254;49.144;8.212;2023-03-14T07:41:14;2.42;;;1.13;;
2486;SDS011;1254;49.144;8.212;2023-03-14T07:44:10;2.15;;;0.95;;
2486;SDS011;1254;49.144;8.212;2023-03-14T07:46:38;3.92;;;0.75;;
2486;SDS011;1254;49.144;8.212;2023-03-14T07:49:06;0.70;;;0.70;;
2486;SDS011;1254;49.144;8.212;2023-03-14T07:51:34;2.50;;;1.20;;
2486;SDS011;1254;49.144;8.212;2023-03-14T07:54:02;1.05;;;0.80;;
2486;SDS011;1254;49.144;8.212;2023-03-14T07:56:30;1.58;;;0.90;;
2486;SDS011;1254;49.144;8.212;2023-03-14T07:58:59;0.70;;;0.65;;
2486;SDS011;1254;49.144;8.212;2023-03-14T08:01:31;1.48;;;0.88;;
2486;SDS011;1254;49.144;8.212;2023-03-14T08:03:59;1.73;;;0.73;;
2486;SDS011;1254;49.144;8.212;2023-03-14T08:06:28;0.75;;;0.70;;
2486;SDS011;1254;49.144;8.212;2023-03-14T08:08:57;2.15;;;0.80;;
2486;SDS011;1254;49.144;8.212;2023-03-14T08:11:25;1.35;;;0.70;;
2486;SDS011;1254;49.144;8.212;2023-03-14T08:13:53;1.90;;;0.90;;
2486;SDS011;1254;49.144;8.212;2023-03-14T08:16:21;2.25;;;0.70;;
2486;SDS011;1254;49.144;8.212;2023-03-14T08:18:51;1.40;;;0.75;;
2486;SDS011;1254;49.144;8.212;2023-03-14T08:21:19;2.03;;;0.82;;
2486;SDS011;1254;49.144;8.212;2023-03-14T08:23:48;3.75;;;0.70;;
2486;SDS011;1254;49.144;8.212;2023-03-14T08:26:19;1.73;;;0.90;;
2486;SDS011;1254;49.144;8.212;2023-03-14T08:28:47;3.60;;;1.10;;
2486;SDS011;1254;49.144;8.212;2023-03-14T08:31:16;0.63;;;0.60;;
2486;SDS011;1254;49.144;8.212;2023-03-14T08:33:44;1.67;;;0.93;;
2486;SDS011;1254;49.144;8.212;2023-03-14T08:36:14;1.05;;;0.60;;
2486;SDS011;1254;49.144;8.212;2023-03-14T08:38:43;4.20;;;1.33;;
2486;SDS011;1254;49.144;8.212;2023-03-14T08:41:12;1.73;;;0.93;;
2486;SDS011;1254;49.144;8.212;2023-03-14T08:43:41;0.68;;;0.63;;
2486;SDS011;1254;49.144;8.212;2023-03-14T08:46:09;1.13;;;0.60;;
2486;SDS011;1254;49.144;8.212;2023-03-14T08:48:38;2.03;;;0.80;;
2486;SDS011;1254;49.144;8.212;2023-03-14T08:51:07;1.02;;;0.70;;
2486;SDS011;1254;49.144;8.212;2023-03-14T08:53:38;1.13;;;1.00;;
2486;SDS011;1254;49.144;8.212;2023-03-14T08:56:09;1.42;;;0.60;;
2486;SDS011;1254;49.144;8.212;2023-03-14T08:58:37;0.70;;;0.70;;
2486;SDS011;1254;49.144;8.212;2023-03-14T09:01:07;0.65;;;0.65;;
2486;SDS011;1254;49.144;8.212;2023-03-14T09:03:45;4.80;;;1.45;;
2486;SDS011;1254;49.144;8.212;2023-03-14T09:06:16;1.02;;;0.60;;
2486;SDS011;1254;49.144;8.212;2023-03-14T09:08:46;0.70;;;0.60;;
2486;SDS011;1254;49.144;8.212;2023-03-14T09:11:14;0.93;;;0.50;;
2486;SDS011;1254;49.144;8.212;2023-03-14T09:13:44;2.65;;;0.82;;
2486;SDS011;1254;49.144;8.212;2023-03-14T09:16:14;1.05;;;0.80;;
2486;SDS011;1254;49.144;8.212;2023-03-14T09:18:44;1.80;;;0.80;;
2486;SDS011;1254;49.144;8.212;2023-03-14T09:21:12;1.60;;;0.75;;
2486;SDS011;1254;49.144;8.212;2023-03-14T09:23:40;1.92;;;0.98;;
2486;SDS011;1254;49.144;8.212;2023-03-14T09:26:13;0.73;;;0.70;;
2486;SDS011;1254;49.144;8.212;2023-03-14T09:28:42;1.13;;;0.70;;
2486;SDS011;1254;49.144;8.212;2023-03-14T09:31:14;0.75;;;0.68;;
2486;SDS011;1254;49.144;8.212;2023-03-14T09:33:45;0.85;;;0.70;;
2486;SDS011;1254;49.144;8.212;2023-03-14T09:36:13;1.17;;;0.70;;
2486;SDS011;1254;49.144;8.212;2023-03-14T09:38:41;1.00;;;0.90;;
2486;SDS011;1254;49.144;8.212;2023-03-14T09:41:15;1.73;;;0.73;;
2486;SDS011;1254;49.144;8.212;2023-03-14T09:43:43;0.50;;;0.50;;
2486;SDS011;1254;49.144;8.212;2023-03-14T09:46:13;0.70;;;0.70;;
2486;SDS011;1254;49.144;8.212;2023-03-14T09:48:44;0.60;;;0.50;;
2486;SDS011;1254;49.144;8.212;2023-03-14T09:51:13;0.98;;;0.60;;
2486;SDS011;1254;49.144;8.212;2023-03-14T09:53:43;0.85;;;0.85;;
2486;SDS011;1254;49.144;8.212;2023-03-14T09:56:16;0.60;;;0.60;;
2486;SDS011;1254;49.144;8.212;2023-03-14T09:58:45;2.80;;;1.38;;
2486;SDS011;1254;49.144;8.212;2023-03-14T10:01:16;1.10;;;0.60;;
2486;SDS011;1254;49.144;8.212;2023-03-14T10:03:46;0.70;;;0.63;;
2486;SDS011;1254;49.144;8.212;2023-03-14T10:06:15;0.65;;;0.60;;
2486;SDS011;1254;49.144;8.212;2023-03-14T10:08:44;1.00;;;0.80;;
2486;SDS011;1254;49.144;8.212;2023-03-14T10:11:15;1.00;;;0.90;;
2486;SDS011;1254;49.144;8.212;2023-03-14T10:13:49;0.73;;;0.63;;
2486;SDS011;1254;49.144;8.212;2023-03-14T10:16:18;2.15;;;0.70;;
2486;SDS011;1254;49.144;8.212;2023-03-14T10:19:01;0.80;;;0.80;;
2486;SDS011;1254;49.144;8.212;2023-03-14T10:21:29;1.23;;;0.80;;
2486;SDS011;1254;49.144;8.212;2023-03-14T10:24:08;0.60;;;0.60;;
2486;SDS011;1254;49.144;8.212;2023-03-14T10:26:42;2.65;;;1.27;;
2486;SDS011;1254;49.144;8.212;2023-03-14T10:29:12;1.15;;;0.60;;
2486;SDS011;1254;49.144;8.212;2023-03-14T10:31:48;1.23;;;0.73;;
2486;SDS011;1254;49.144;8.212;2023-03-14T10:34:20;0.90;;;0.70;;
2486;SDS011;1254;49.144;8.212;2023-03-14T10:36:56;1.63;;;0.77;;
2486;SDS011;1254;49.144;8.212;2023-03-14T10:39:40;0.73;;;0.73;;
2486;SDS011;1254;49.144;8.212;2023-03-14T10:42:14;0.95;;;0.80;;
2486;SDS011;1254;49.144;8.212;2023-03-14T10:44:44;1.55;;;0.70;;
2486;SDS011;1254;49.144;8.212;2023-03-14T10:47:18;2.65;;;0.82;;
2486;SDS011;1254;49.144;8.212;2023-03-14T10:49:47;0.70;;;0.70;;
2486;SDS011;1254;49.144;8.212;2023-03-14T10:52:21;1.00;;;0.88;;
2486;SDS011;1254;49.144;8.212;2023-03-14T10:54:54;1.52;;;0.70;;
2486;SDS011;1254;49.144;8.212;2023-03-14T10:57:25;2.05;;;0.90;;
2486;SDS011;1254;49.144;8.212;2023-03-14T10:59:57;0.70;;;0.70;;
2486;SDS011;1254;49.144;8.212;2023-03-14T11:02:39;2.55;;;0.70;;
2486;SDS011;1254;49.144;8.212;2023-03-14T11:05:22;0.88;;;0.60;;
2486;SDS011;1254;49.144;8.212;2023-03-14T11:07:53;0.80;;;0.70;;
2486;SDS011;1254;49.144;8.212;2023-03-14T11:10:23;1.33;;;0.70;;
2486;SDS011;1254;49.144;8.212;2023-03-14T11:12:59;0.80;;;0.80;;
2486;SDS011;1254;49.144;8.212;2023-03-14T11:15:33;0.70;;;0.70;;
2486;SDS011;1254;49.144;8.212;2023-03-14T11:18:08;0.65;;;0.65;;
2486;SDS011;1254;49.144;8.212;2023-03-14T11:20:41;1.83;;;0.80;;
2486;SDS011;1254;49.144;8.212;2023-03-14T11:23:15;2.63;;;2.05;;
2486;SDS011;1254;49.144;8.212;2023-03-14T11:25:52;0.77;;;0.77;;
2486;SDS011;1254;49.144;8.212;2023-03-14T11:29:11;1.20;;;1.10;;
2486;SDS011;1254;49.144;8.212;2023-03-14T11:31:41;1.00;;;1.00;;
2486;SDS011;1254;49.144;8.212;2023-03-14T11:34:16;1.92;;;0.80;;
2486;SDS011;1254;49.144;8.212;2023-03-14T11:36:46;0.80;;;0.80;;
2486;SDS011;1254;49.144;8.212;2023-03-14T11:39:17;1.13;;;1.02;;
2486;SDS011;1254;49.144;8.212;2023-03-14T11:41:46;0.80;;;0.80;;
2486;SDS011;1254;49.144;8.212;2023-03-14T11:44:21;1.10;;;1.00;;
2486;SDS011;1254;49.144;8.212;2023-03-14T11:46:52;1.15;;;1.02;;
2486;SDS011;1254;49.144;8.212;2023-03-14T11:49:27;1.02;;;1.02;;
2486;SDS011;1254;49.144;8.212;2023-03-14T11:52:14;1.50;;;1.08;;
2486;SDS011;1254;49.144;8.212;2023-03-14T11:54:58;1.10;;;1.00;;
2486;SDS011;1254;49.144;8.212;2023-03-14T11:57:28;0.95;;;0.90;;
2486;SDS011;1254;49.144;8.212;2023-03-14T12:00:12;1.08;;;1.08;;
2486;SDS011;1254;49.144;8.212;2023-03-14T12:02:45;1.20;;;1.10;;
2486;SDS011;1254;49.144;8.212;2023-03-14T12:08:33;1.15;;;0.90;;
2486;SDS011;1254;49.144;8.212;2023-03-14T12:11:26;1.40;;;1.30;;
2486;SDS011;1254;49.144;8.212;2023-03-14T12:13:56;0.90;;;0.90;;
2486;SDS011;1254;49.144;8.212;2023-03-14T12:16:35;6.57;;;1.35;;
2486;SDS011;1254;49.144;8.212;2023-03-14T12:22:08;3.63;;;1.15;;
2486;SDS011;1254;49.144;8.212;2023-03-14T12:26:08;2.28;;;1.17;;
2486;SDS011;1254;49.144;8.212;2023-03-14T12:32:27;1.27;;;1.23;;
2486;SDS011;1254;49.144;8.212;2023-03-14T12:36:11;1.63;;;1.50;;
2486;SDS011;1254;49.144;8.212;2023-03-14T12:39:27;2.13;;;1.50;;
2486;SDS011;1254;49.144;8.212;2023-03-14T12:42:44;2.58;;;2.38;;
2486;SDS011;1254;49.144;8.212;2023-03-14T12:45:29;2.83;;;2.70;;
2486;SDS011;1254;49.144;8.212;2023-03-14T12:49:03;4.65;;;3.72;;
2486;SDS011;1254;49.144;8.212;2023-03-14T12:51:45;6.10;;;5.80;;
2486;SDS011;1254;49.144;8.212;2023-03-14T12:54:32;13.43;;;12.40;;
2486;SDS011;1254;49.144;8.212;2023-03-14T12:57:23;10.70;;;10.10;;
2486;SDS011;1254;49.144;8.212;2023-03-14T13:00:30;6.53;;;6.32;;
2486;SDS011;1254;49.144;8.212;2023-03-14T13:04:10;19.95;;;18.05;;
2486;SDS011;1254;49.144;8.212;2023-03-14T13:06:59;7.30;;;6.90;;
2486;SDS011;1254;49.144;8.212;2023-03-14T13:10:02;10.02;;;9.27;;
2486;SDS011;1254;49.144;8.212;2023-03-14T13:13:08;12.73;;;11.85;;
2486;SDS011;1254;49.144;8.212;2023-03-14T13:16:21;9.02;;;8.63;;
2486;SDS011;1254;49.144;8.212;2023-03-14T13:18:58;8.85;;;8.52;;
2486;SDS011;1254;49.144;8.212;2023-03-14T13:21:39;10.18;;;9.65;;
2486;SDS011;1254;49.144;8.212;2023-03-14T13:24:20;9.48;;;9.05;;
2486;SDS011;1254;49.144;8.212;2023-03-14T13:27:15;10.50;;;9.88;;
2486;SDS011;1254;49.144;8.212;2023-03-14T13:29:48;10.73;;;10.13;;
2486;SDS011;1254;49.144;8.212;2023-03-14T13:32:22;13.57;;;12.57;;
2486;SDS011;1254;49.144;8.212;2023-03-14T13:34:59;19.75;;;17.70;;
2486;SDS011;1254;49.144;8.212;2023-03-14T13:37:30;15.43;;;14.32;;
2486;SDS011;1254;49.144;8.212;2023-03-14T13:39:58;11.85;;;11.18;;
2486;SDS011;1254;49.144;8.212;2023-03-14T13:42:27;11.75;;;11.25;;
2486;SDS011;1254;49.144;8.212;2023-03-14T13:45:01;11.07;;;10.57;;
2486;SDS011;1254;49.144;8.212;2023-03-14T13:47:45;10.02;;;9.73;;
2486;SDS011;1254;49.144;8.212;2023-03-14T13:50:17;10.27;;;9.88;;
2486;SDS011;1254;49.144;8.212;2023-03-14T13:52:55;10.38;;;10.00;;
2486;SDS011;1254;49.144;8.212;2023-03-14T13:55:25;10.88;;;10.48;;
2486;SDS011;1254;49.144;8.212;2023-03-14T13:57:58;11.97;;;11.47;;
2486;SDS011;1254;49.144;8.212;2023-03-14T14:00:32;11.07;;;10.67;;
2486;SDS011;1254;49.144;8.212;2023-03-14T14:03:01;12.30;;;11.77;;
2486;SDS011;1254;49.144;8.212;2023-03-14T14:05:29;12.00;;;11.50;;
2486;SDS011;1254;49.144;8.212;2023-03-14T14:08:04;12.87;;;12.23;;
2486;SDS011;1254;49.144;8.212;2023-03-14T14:10:32;12.43;;;11.93;;
2486;SDS011;1254;49.144;8.212;2023-03-14T14:13:03;13.13;;;12.27;;
2486;SDS011;1254;49.144;8.212;2023-03-14T14:15:39;12.20;;;11.70;;
2486;SDS011;1254;49.144;8.212;2023-03-14T14:18:09;12.73;;;12.23;;
2486;SDS011;1254;49.144;8.212;2023-03-14T14:20:41;12.80;;;12.20;;
2486;SDS011;1254;49.144;8.212;2023-03-14T14:23:17;12.73;;;12.20;;
2486;SDS011;1254;49.144;8.212;2023-03-14T14:26:13;12.77;;;12.27;;
2486;SDS011;1254;49.144;8.212;2023-03-14T14:29:02;12.10;;;11.60;;
2486;SDS011;1254;49.144;8.212;2023-03-14T14:31:30;13.03;;;12.13;;
2486;SDS011;1254;49.144;8.212;2023-03-14T14:33:59;12.53;;;12.03;;
2486;SDS011;1254;49.144;8.212;2023-03-14T14:36:31;12.00;;;11.60;;
2486;SDS011;1254;49.144;8.212;2023-03-14T14:39:15;12.90;;;12.07;;
2486;SDS011;1254;49.144;8.212;2023-03-14T14:41:45;12.90;;;12.20;;
2486;SDS011;1254;49.144;8.212;2023-03-14T14:44:18;12.63;;;11.98;;
2486;SDS011;1254;49.144;8.212;2023-03-14T14:46:48;12.65;;;11.95;;
2486;SDS011;1254;49.144;8.212;2023-03-14T14:49:17;12.35;;;11.73;;
2486;SDS011;1254;49.144;8.212;2023-03-14T14:51:47;12.15;;;11.55;;
2486;SDS011;1254;49.144;8.212;2023-03-14T14:54:19;12.52;;;11.85;;
2486;SDS011;1254;49.144;8.212;2023-03-14T14:56:51;12.55;;;12.00;;
2486;SDS011;1254;49.144;8.212;2023-03-14T14:59:23;12.73;;;12.23;;
2486;SDS011;1254;49.144;8.212;2023-03-14T15:01:56;12.40;;;11.60;;
2486;SDS011;1254;49.144;8.212;2023-03-14T15:04:26;12.90;;;12.20;;
2486;SDS011;1254;49.144;8.212;2023-03-14T15:06:56;12.50;;;11.90;;
2486;SDS011;1254;49.144;8.212;2023-03-14T15:09:27;12.52;;;11.90;;
2486;SDS011;1254;49.144;8.212;2023-03-14T15:11:56;12.65;;;12.00;;
2486;SDS011;1254;49.144;8.212;2023-03-14T15:14:25;12.03;;;11.63;;
2486;SDS011;1254;49.144;8.212;2023-03-14T15:16:53;12.20;;;11.70;;
2486;SDS011;1254;49.144;8.212;2023-03-14T15:19:23;12.70;;;12.00;;
2486;SDS011;1254;49.144;8.212;2023-03-14T15:21:52;12.17;;;11.50;;
2486;SDS011;1254;49.144;8.212;2023-03-14T15:24:21;13.13;;;12.30;;
2486;SDS011;1254;49.144;8.212;2023-03-14T15:26:53;12.60;;;12.07;;
2486;SDS011;1254;49.144;8.212;2023-03-14T15:29:22;15.10;;;13.90;;
2486;SDS011;1254;49.144;8.212;2023-03-14T15:31:59;13.43;;;12.82;;
2486;SDS011;1254;49.144;8.212;2023-03-14T15:35:00;13.35;;;12.35;;
2486;SDS011;1254;49.144;8.212;2023-03-14T15:37:28;12.90;;;12.10;;
2486;SDS011;1254;49.144;8.212;2023-03-14T15:39:56;12.40;;;11.80;;
2486;SDS011;1254;49.144;8.212;2023-03-14T15:42:27;12.55;;;11.85;;
2486;SDS011;1254;49.144;8.212;2023-03-14T15:44:56;13.25;;;12.25;;
2486;SDS011;1254;49.144;8.212;2023-03-14T15:47:24;13.85;;;12.80;;
2486;SDS011;1254;49.144;8.212;2023-03-14T15:50:08;13.77;;;12.88;;
2486;SDS011;1254;49.144;8.212;2023-03-14T15:54:02;13.90;;;12.80;;
2486;SDS011;1254;49.144;8.212;2023-03-14T16:05:49;13.70;;;12.77;;
2486;SDS011;1254;49.144;8.212;2023-03-14T16:11:35;13.73;;;13.00;;
2486;SDS011;1254;49.144;8.212;2023-03-14T16:14:33;12.80;;;12.02;;
2486;SDS011;1254;49.144;8.212;2023-03-14T16:17:44;14.07;;;13.23;;
2486;SDS011;1254;49.144;8.212;2023-03-14T16:20:17;13.07;;;12.38;;